Aviation Digital Data Service (ADDS)

Output produced by METARs form (1633 UTC 16 June 2019)
found at http://www.aviationweather.gov/metar/data/
 
Forecast for: ESOW (VASTERAS/HASSLO , SE)
Text: TAF ESOW 161630Z 1617/1619 18005KT CAVOK
Forecast period: 1700 to 1900 UTC 16 June 2019
Forecast type: FROM: standard forecast or significant change
Winds: from the S (180 degrees) at 6 MPH (5 knots; 2.6 m/s)
Visibility: 6 or more miles 10+ km)
Ceiling: unknown
Clouds: missing
Weather: NSW  (no significant weather)